createdAt,value
2018-12-11T00:00:19.893Z,23.27
2018-12-11T00:04:27.989Z,25.33
2018-12-11T00:08:34.447Z,31.43
2018-12-11T00:12:39.541Z,23.23
2018-12-11T00:16:44.569Z,29.40
2018-12-11T00:20:50.045Z,21.13
2018-12-11T00:24:54.993Z,22.33
2018-12-11T00:29:01.609Z,30.47
2018-12-11T00:33:06.929Z,25.37
2018-12-11T00:37:13.540Z,23.97
2018-12-11T00:41:26.429Z,27.83
2018-12-11T00:45:39.605Z,28.57
2018-12-11T00:49:44.889Z,27.47
2018-12-11T00:53:54.188Z,29.17
2018-12-11T00:58:00.128Z,35.30
2018-12-11T01:06:14.019Z,26.50
2018-12-11T01:10:21.415Z,38.57
2018-12-11T01:14:30.085Z,30.37
2018-12-11T01:18:35.292Z,29.23
2018-12-11T01:22:43.432Z,33.87
2018-12-11T01:26:48.556Z,38.60
2018-12-11T01:30:54.045Z,35.67
2018-12-11T01:35:03.047Z,35.63
2018-12-11T01:39:09.322Z,25.07
2018-12-11T01:43:15.168Z,31.87
2018-12-11T01:51:29.545Z,22.80
2018-12-11T01:55:35.893Z,24.80
2018-12-11T01:59:41.832Z,31.00
2018-12-11T02:03:47.312Z,27.33
2018-12-11T02:08:00.171Z,24.93
2018-12-11T02:16:19.593Z,25.43
2018-12-11T02:20:24.645Z,29.47
2018-12-11T02:28:38.939Z,26.30
2018-12-11T02:32:45.161Z,32.23
2018-12-11T02:36:50.238Z,29.00
2018-12-11T02:40:59.190Z,27.10
2018-12-11T02:45:05.492Z,33.33
2018-12-11T02:49:15.319Z,29.67
2018-12-11T02:53:20.329Z,27.10
2018-12-11T02:57:25.451Z,28.07
2018-12-11T03:05:43.958Z,28.23
2018-12-11T03:09:49.033Z,26.07
2018-12-11T03:13:56.478Z,32.53
2018-12-11T03:18:02.580Z,28.47
2018-12-11T03:22:09.919Z,24.10
2018-12-11T03:26:18.297Z,26.57
2018-12-11T03:30:23.317Z,32.37
2018-12-11T03:34:28.561Z,24.90
2018-12-11T03:38:36.716Z,31.57
2018-12-11T03:42:41.700Z,26.03
2018-12-11T03:46:46.830Z,24.73
2018-12-11T03:50:55.036Z,27.47
2018-12-11T03:55:00.604Z,33.20
2018-12-11T03:59:06.393Z,29.27
2018-12-11T04:03:18.784Z,30.57
2018-12-11T04:07:24.252Z,27.20
2018-12-11T04:11:30.282Z,27.20
2018-12-11T04:15:38.218Z,28.70
2018-12-11T04:19:43.244Z,34.37
2018-12-11T04:23:48.552Z,31.33
2018-12-11T04:27:58.590Z,29.80
2018-12-11T04:32:05.155Z,32.33
2018-12-11T04:36:10.118Z,39.23
2018-12-11T04:40:18.343Z,29.80
2018-12-11T04:44:23.463Z,25.80
2018-12-11T04:48:29.924Z,31.27
2018-12-11T04:52:38.560Z,29.20
2018-12-11T04:56:43.739Z,31.47
2018-12-11T05:04:59.564Z,32.07
2018-12-11T05:09:07.000Z,32.97
2018-12-11T05:13:15.046Z,38.17
2018-12-11T05:17:20.045Z,34.83
2018-12-11T05:21:25.969Z,29.57
2018-12-11T05:29:42.747Z,35.87
2018-12-11T05:33:48.620Z,33.13
2018-12-11T05:37:57.156Z,35.93
2018-12-11T05:42:02.583Z,34.37
2018-12-11T05:46:07.507Z,28.73
2018-12-11T05:50:16.048Z,37.87
2018-12-11T05:54:21.974Z,34.23
2018-12-11T05:58:27.049Z,34.83
2018-12-11T06:02:36.223Z,34.93
2018-12-11T06:06:42.500Z,57.63
2018-12-11T06:15:04.285Z,50.87
2018-12-11T06:19:09.597Z,48.43
2018-12-11T06:27:29.301Z,41.97
2018-12-11T06:31:34.828Z,42.43
2018-12-11T06:35:48.421Z,44.20
2018-12-11T06:39:53.441Z,42.53
2018-12-11T06:44:02.282Z,56.20
2018-12-11T06:48:07.243Z,48.23
2018-12-11T06:52:12.254Z,45.23
2018-12-11T06:56:20.193Z,46.03
2018-12-11T07:00:25.995Z,37.23
2018-12-11T07:04:32.190Z,38.87
2018-12-11T07:08:38.105Z,36.43
2018-12-11T07:12:43.318Z,31.50
2018-12-11T07:16:57.231Z,39.00
2018-12-11T07:21:02.257Z,54.10
2018-12-11T07:25:08.468Z,51.60
2018-12-11T07:29:23.901Z,35.70
2018-12-11T07:37:39.597Z,38.37
2018-12-11T07:41:46.929Z,45.93
2018-12-11T07:45:52.057Z,46.20
2018-12-11T07:49:57.818Z,40.03
2018-12-11T07:54:03.464Z,44.27
2018-12-11T07:58:08.902Z,44.93
2018-12-11T08:02:22.387Z,48.57
2018-12-11T08:06:30.032Z,51.93
2018-12-11T08:10:36.312Z,39.47
2018-12-11T08:14:41.535Z,39.27
2018-12-11T08:18:46.679Z,52.53
2018-12-11T08:22:59.097Z,45.90
2018-12-11T08:27:05.235Z,36.33
2018-12-11T08:35:22.973Z,36.47
2018-12-11T08:39:28.182Z,34.47
2018-12-11T08:43:39.185Z,43.00
2018-12-11T08:47:44.267Z,41.00
2018-12-11T08:51:50.504Z,30.77
2018-12-11T08:55:58.649Z,34.47
2018-12-11T09:00:04.902Z,36.00
2018-12-11T09:04:15.504Z,43.63
2018-12-11T09:08:21.078Z,39.40
2018-12-11T09:12:26.217Z,35.03
2018-12-11T09:16:31.445Z,30.07
2018-12-11T09:20:36.644Z,40.53
2018-12-11T09:24:49.575Z,38.03
2018-12-11T09:28:55.550Z,36.77
2018-12-11T09:33:06.305Z,38.50
2018-12-11T09:37:12.898Z,30.33
2018-12-11T09:41:17.821Z,30.57
2018-12-11T09:45:26.372Z,36.20
2018-12-11T09:49:31.528Z,22.03
2018-12-11T09:53:38.214Z,31.37
2018-12-11T09:57:46.801Z,21.87
2018-12-11T10:01:52.797Z,25.80
2018-12-11T10:05:57.786Z,25.30
2018-12-11T10:10:07.874Z,26.33
2018-12-11T10:14:13.046Z,21.73
2018-12-11T10:18:18.321Z,19.70
2018-12-11T10:22:26.623Z,16.53
2018-12-11T10:26:33.064Z,17.43
2018-12-11T10:30:49.966Z,18.70
2018-12-11T10:34:55.075Z,13.47
2018-12-11T10:39:00.725Z,17.53
2018-12-11T10:43:08.652Z,17.77
2018-12-11T10:47:13.713Z,17.47
2018-12-11T10:51:21.468Z,20.77
2018-12-11T10:55:26.447Z,17.53
2018-12-11T10:59:32.458Z,19.23
2018-12-11T11:03:41.245Z,15.40
2018-12-11T11:07:46.519Z,15.77
2018-12-11T11:11:52.164Z,17.57
2018-12-11T11:16:00.379Z,11.80
2018-12-11T11:20:05.725Z,15.73
2018-12-11T11:24:12.184Z,20.33
2018-12-11T11:28:24.868Z,20.63
2018-12-11T11:32:30.400Z,20.27
2018-12-11T11:36:35.385Z,21.97
2018-12-11T11:40:41.762Z,19.80
2018-12-11T11:44:47.371Z,25.87
2018-12-11T11:48:53.179Z,18.83
2018-12-11T11:53:03.574Z,19.47
2018-12-11T11:57:08.655Z,23.07
2018-12-11T12:01:13.663Z,16.90
2018-12-11T12:05:23.295Z,19.63
2018-12-11T12:09:28.608Z,16.73
2018-12-11T12:13:34.755Z,25.70
2018-12-11T12:17:46.981Z,19.40
2018-12-11T12:21:54.257Z,15.47
2018-12-11T12:26:02.921Z,19.50
2018-12-11T12:30:08.574Z,16.97
2018-12-11T12:34:14.055Z,17.07
2018-12-11T12:38:24.528Z,24.50
2018-12-11T12:42:30.018Z,23.20
2018-12-11T12:46:44.417Z,21.20
2018-12-11T12:50:51.106Z,16.93
2018-12-11T12:59:05.415Z,25.00
2018-12-11T13:03:10.548Z,12.13
2018-12-11T13:11:25.063Z,20.23
2018-12-11T13:15:33.731Z,20.57
2018-12-11T13:19:45.938Z,17.00
2018-12-11T13:23:51.376Z,19.80
2018-12-11T13:28:04.590Z,16.07
2018-12-11T13:32:11.065Z,16.87
2018-12-11T13:40:28.680Z,17.50
2018-12-11T13:44:33.686Z,21.13
2018-12-11T13:48:42.857Z,16.67
2018-12-11T13:52:48.023Z,19.37
2018-12-11T13:56:53.368Z,16.37
2018-12-11T14:01:05.566Z,23.73
2018-12-11T14:05:12.256Z,38.43
2018-12-11T14:09:20.235Z,27.93
2018-12-11T14:13:29.057Z,22.97
2018-12-11T14:17:34.817Z,15.60
2018-12-11T14:21:49.199Z,16.17
2018-12-11T14:25:54.158Z,19.57
2018-12-11T14:29:59.289Z,25.53
2018-12-11T14:34:07.417Z,22.30
2018-12-11T14:38:13.028Z,23.57
2018-12-11T14:42:18.011Z,27.63
2018-12-11T14:46:30.131Z,29.53
2018-12-11T14:50:35.044Z,21.43
2018-12-11T14:58:53.440Z,21.57
2018-12-11T15:02:59.797Z,22.83
2018-12-11T15:07:08.120Z,27.00
2018-12-11T15:11:14.843Z,25.73
2018-12-11T15:15:19.868Z,23.47
2018-12-11T15:19:33.070Z,28.00
2018-12-11T15:23:38.048Z,28.60
2018-12-11T15:27:52.224Z,38.13
2018-12-11T15:31:58.175Z,31.73
2018-12-11T15:36:07.945Z,49.33
2018-12-11T15:40:13.190Z,34.27
2018-12-11T15:44:20.267Z,37.77
2018-12-11T15:48:28.069Z,39.00
2018-12-11T15:52:34.226Z,32.17
2018-12-11T16:00:51.507Z,39.30
2018-12-11T16:04:58.852Z,37.77
2018-12-11T16:09:13.014Z,40.70
2018-12-11T16:13:19.588Z,30.13
2018-12-11T16:17:29.249Z,33.20
2018-12-11T16:21:34.871Z,37.67
2018-12-11T16:25:39.886Z,33.33
2018-12-11T16:29:46.562Z,41.93
2018-12-11T16:33:52.340Z,40.13
2018-12-11T16:37:57.649Z,34.50
2018-12-11T16:42:07.390Z,41.30
2018-12-11T16:46:12.596Z,37.83
2018-12-11T16:50:18.989Z,36.90
2018-12-11T16:54:24.009Z,45.07
2018-12-11T16:58:29.731Z,43.60
2018-12-11T17:02:34.949Z,43.37
2018-12-11T17:06:42.342Z,44.00
2018-12-11T17:10:47.918Z,44.33
2018-12-11T17:14:53.120Z,49.20
2018-12-11T17:18:58.608Z,49.63
2018-12-11T17:23:04.492Z,60.87
2018-12-11T17:27:13.335Z,52.53
2018-12-11T17:31:18.608Z,68.97
2018-12-11T17:35:24.569Z,63.30
2018-12-11T17:43:45.424Z,69.90
2018-12-11T17:47:53.199Z,79.77
2018-12-11T17:51:59.329Z,69.90
2018-12-11T17:56:10.078Z,69.17
2018-12-11T18:04:33.903Z,76.80
2018-12-11T18:08:39.973Z,68.83
2018-12-11T18:12:48.915Z,71.77
2018-12-11T18:16:58.158Z,65.03
2018-12-11T18:21:03.105Z,71.00
2018-12-11T18:25:10.934Z,68.33
2018-12-11T18:29:16.143Z,68.77
2018-12-11T18:33:23.089Z,74.57
2018-12-11T18:37:29.309Z,69.80
2018-12-11T18:41:34.574Z,74.03
2018-12-11T18:45:41.798Z,71.60
2018-12-11T18:49:47.917Z,74.97
2018-12-11T18:53:52.969Z,78.00
2018-12-11T18:57:58.013Z,70.37
2018-12-11T19:02:03.110Z,84.77
2018-12-11T19:06:17.115Z,74.43
2018-12-11T19:10:23.287Z,80.33
2018-12-11T19:14:28.533Z,79.77
2018-12-11T19:18:37.856Z,77.97
2018-12-11T19:22:43.636Z,69.57
2018-12-11T19:26:49.883Z,75.13
2018-12-11T19:30:55.970Z,79.50
2018-12-11T19:35:04.522Z,81.10
2018-12-11T19:39:14.333Z,80.27
2018-12-11T19:43:19.686Z,84.27
2018-12-11T19:47:25.908Z,80.07
2018-12-11T19:55:44.447Z,76.63
2018-12-11T19:59:49.938Z,87.20
2018-12-11T20:03:55.511Z,89.60
2018-12-11T20:08:01.042Z,97.27
2018-12-11T20:12:06.294Z,86.63
2018-12-11T20:16:13.662Z,99.63
2018-12-11T20:20:28.982Z,95.57
2018-12-11T20:24:34.635Z,99.43
2018-12-11T20:28:42.709Z,99.97
2018-12-11T20:32:48.091Z,103.47
2018-12-11T20:36:53.663Z,103.40
2018-12-11T20:40:59.507Z,104.20
2018-12-11T20:45:07.167Z,120.10
2018-12-11T20:49:12.216Z,124.43
2018-12-11T20:53:17.317Z,135.07
2018-12-11T20:57:24.888Z,138.80
2018-12-11T21:01:29.991Z,141.43
2018-12-11T21:05:36.333Z,138.10
2018-12-11T21:09:41.788Z,136.93
2018-12-11T21:13:47.710Z,123.10
2018-12-11T21:17:55.543Z,125.47
2018-12-11T21:22:00.825Z,131.20
2018-12-11T21:26:06.276Z,130.33
2018-12-11T21:30:12.786Z,133.23
2018-12-11T21:34:19.332Z,119.20
2018-12-11T21:38:28.247Z,118.33
2018-12-11T21:42:37.173Z,114.47
2018-12-11T21:46:42.397Z,112.27
2018-12-11T21:50:53.063Z,115.30
2018-12-11T21:55:08.547Z,108.57
2018-12-11T21:59:15.422Z,103.57
2018-12-11T22:03:20.710Z,113.83
2018-12-11T22:07:59.515Z,108.50
2018-12-11T22:12:08.047Z,103.13
2018-12-11T22:16:14.625Z,115.77
2018-12-11T22:20:20.272Z,106.37
2018-12-11T22:24:27.162Z,120.07
2018-12-11T22:28:47.455Z,114.87
2018-12-11T22:33:01.151Z,114.20
2018-12-11T22:37:08.620Z,105.53
2018-12-11T22:41:15.606Z,109.93
2018-12-11T22:45:23.470Z,73.63
2018-12-11T22:49:30.801Z,101.17
2018-12-11T22:53:37.956Z,116.30
2018-12-11T22:57:46.564Z,110.20
2018-12-11T23:01:51.772Z,117.70
2018-12-11T23:05:57.158Z,121.10
2018-12-11T23:10:07.280Z,108.27
2018-12-11T23:14:12.815Z,116.80
2018-12-11T23:18:18.035Z,120.10
2018-12-11T23:22:26.872Z,102.97
2018-12-11T23:26:35.104Z,109.37
2018-12-11T23:30:40.299Z,111.00
2018-12-11T23:34:51.168Z,121.00
2018-12-11T23:38:56.216Z,122.23
2018-12-11T23:47:14.426Z,122.17
2018-12-11T23:51:19.513Z,119.43
2018-12-11T23:55:28.312Z,108.40
2018-12-11T23:59:33.978Z,108.10
